createdAt,value
2018-02-17T00:00:07.456Z,6.33
2018-02-17T00:02:34.912Z,8.67
2018-02-17T00:05:02.368Z,6.57
2018-02-17T00:07:29.772Z,6.63
2018-02-17T00:09:57.982Z,7.63
2018-02-17T00:12:25.461Z,6.73
2018-02-17T00:14:52.921Z,5.63
2018-02-17T00:17:20.404Z,6.60
2018-02-17T00:19:47.842Z,6.83
2018-02-17T00:22:15.292Z,8.80
2018-02-17T00:24:42.725Z,9.33
2018-02-17T00:27:10.220Z,10.63
2018-02-17T00:29:37.671Z,10.00
2018-02-17T00:32:05.093Z,9.70
2018-02-17T00:34:33.315Z,10.40
2018-02-17T00:37:00.762Z,10.63
2018-02-17T00:39:28.176Z,9.30
2018-02-17T00:41:56.377Z,9.47
2018-02-17T00:44:23.800Z,9.03
2018-02-17T00:46:51.241Z,9.10
2018-02-17T00:49:18.674Z,9.00
2018-02-17T00:51:46.127Z,11.10
2018-02-17T00:54:13.593Z,10.90
2018-02-17T00:56:41.025Z,10.93
2018-02-17T00:59:08.512Z,7.70
2018-02-17T01:01:35.950Z,7.63
2018-02-17T01:04:03.372Z,6.70
2018-02-17T01:06:30.801Z,6.07
2018-02-17T01:08:58.244Z,5.63
2018-02-17T01:11:25.672Z,5.97
2018-02-17T01:13:53.166Z,5.07
2018-02-17T01:16:20.600Z,5.67
2018-02-17T01:18:48.029Z,6.00
2018-02-17T01:21:16.252Z,6.37
2018-02-17T01:23:43.696Z,5.53
2018-02-17T01:26:11.118Z,6.63
2018-02-17T01:28:39.337Z,5.70
2018-02-17T01:31:06.896Z,5.70
2018-02-17T01:33:34.308Z,5.33
2018-02-17T01:36:02.536Z,5.67
2018-02-17T01:38:29.988Z,5.53
2018-02-17T01:40:57.453Z,5.30
2018-02-17T01:43:24.901Z,5.67
2018-02-17T01:45:52.317Z,5.03
2018-02-17T01:48:20.513Z,6.47
2018-02-17T01:50:47.948Z,6.37
2018-02-17T01:53:17.027Z,6.10
2018-02-17T01:55:44.452Z,6.07
2018-02-17T01:58:11.881Z,7.53
2018-02-17T02:00:39.364Z,6.23
2018-02-17T02:03:06.804Z,7.00
2018-02-17T02:05:34.231Z,6.50
2018-02-17T02:08:01.737Z,6.07
2018-02-17T02:10:29.192Z,6.30
2018-02-17T02:12:56.625Z,6.27
2018-02-17T02:15:24.068Z,6.90
2018-02-17T02:17:52.273Z,7.23
2018-02-17T02:20:19.701Z,6.93
2018-02-17T02:22:47.907Z,5.87
2018-02-17T02:25:15.332Z,6.67
2018-02-17T02:27:43.529Z,6.93
2018-02-17T02:30:11.006Z,6.43
2018-02-17T02:32:38.438Z,6.70
2018-02-17T02:35:05.921Z,6.80
2018-02-17T02:37:33.370Z,6.13
2018-02-17T02:40:00.804Z,6.33
2018-02-17T02:42:29.017Z,6.20
2018-02-17T02:44:56.459Z,7.10
2018-02-17T02:47:23.928Z,6.10
2018-02-17T02:49:51.385Z,7.00
2018-02-17T02:52:18.848Z,6.13
2018-02-17T02:54:46.276Z,7.27
2018-02-17T02:57:13.700Z,5.83
2018-02-17T02:59:41.922Z,6.57
2018-02-17T03:02:09.348Z,6.90
2018-02-17T03:04:37.558Z,7.30
2018-02-17T03:07:05.034Z,6.27
2018-02-17T03:09:32.417Z,6.77
2018-02-17T03:11:59.939Z,7.50
2018-02-17T03:14:27.382Z,7.43
2018-02-17T03:16:54.891Z,7.00
2018-02-17T03:19:22.410Z,7.53
2018-02-17T03:21:49.866Z,7.37
2018-02-17T03:24:17.296Z,7.60
2018-02-17T03:26:44.728Z,6.77
2018-02-17T03:29:12.952Z,7.17
2018-02-17T03:31:40.409Z,6.73
2018-02-17T03:34:07.840Z,7.10
2018-02-17T03:36:35.326Z,7.83
2018-02-17T03:39:02.752Z,6.40
2018-02-17T03:41:30.180Z,6.87
2018-02-17T03:43:57.616Z,6.53
2018-02-17T03:46:25.045Z,7.47
2018-02-17T03:48:52.478Z,6.37
2018-02-17T03:51:19.912Z,7.03
2018-02-17T03:53:48.114Z,7.30
2018-02-17T03:56:15.540Z,7.50
2018-02-17T03:58:43.764Z,7.83
2018-02-17T04:01:11.192Z,8.43
2018-02-17T04:03:38.615Z,7.37
2018-02-17T04:06:06.140Z,7.07
2018-02-17T04:08:33.569Z,8.57
2018-02-17T04:11:01.048Z,8.03
2018-02-17T04:13:28.500Z,7.13
2018-02-17T04:15:55.920Z,8.37
2018-02-17T04:18:24.132Z,7.90
2018-02-17T04:20:51.609Z,7.13
2018-02-17T04:23:19.048Z,6.73
2018-02-17T04:25:46.512Z,7.47
2018-02-17T04:28:13.967Z,7.10
2018-02-17T04:30:41.424Z,7.43
2018-02-17T04:33:08.875Z,8.07
2018-02-17T04:35:36.345Z,7.50
2018-02-17T04:38:03.772Z,7.23
2018-02-17T04:40:32.784Z,7.90
2018-02-17T04:43:06.144Z,7.87
2018-02-17T04:45:50.140Z,7.90
2018-02-17T04:48:34.236Z,8.60
2018-02-17T04:51:18.116Z,8.10
2018-02-17T04:53:51.364Z,6.60
2018-02-17T04:56:20.496Z,7.37
2018-02-17T04:59:05.604Z,8.33
2018-02-17T05:01:48.685Z,9.40
2018-02-17T05:04:21.948Z,7.80
2018-02-17T05:06:57.700Z,8.37
2018-02-17T05:09:25.908Z,8.53
2018-02-17T05:11:53.338Z,8.57
2018-02-17T05:14:27.274Z,8.97
2018-02-17T05:17:13.471Z,9.17
2018-02-17T05:20:00.704Z,8.43
2018-02-17T05:22:28.136Z,7.83
2018-02-17T05:24:55.568Z,7.47
2018-02-17T05:27:39.444Z,8.47
2018-02-17T05:30:24.724Z,8.40
2018-02-17T05:32:57.826Z,9.23
2018-02-17T05:35:26.724Z,8.23
2018-02-17T05:37:54.159Z,9.60
2018-02-17T05:40:24.497Z,8.60
2018-02-17T05:42:51.931Z,10.27
2018-02-17T05:45:19.373Z,8.57
2018-02-17T05:47:46.810Z,9.83
2018-02-17T05:50:15.419Z,10.07
2018-02-17T05:52:42.848Z,9.57
2018-02-17T05:55:11.173Z,9.87
2018-02-17T05:57:38.727Z,10.53
2018-02-17T06:00:06.140Z,9.67
2018-02-17T06:02:34.464Z,10.43
2018-02-17T06:05:01.911Z,10.03
2018-02-17T06:07:29.337Z,9.77
2018-02-17T06:09:57.648Z,9.50
2018-02-17T06:12:25.121Z,10.50
2018-02-17T06:14:52.569Z,11.17
2018-02-17T06:17:20.123Z,10.47
2018-02-17T06:19:48.325Z,10.07
2018-02-17T06:22:15.792Z,10.83
2018-02-17T06:24:43.244Z,10.87
2018-02-17T06:27:10.713Z,10.13
2018-02-17T06:29:38.152Z,10.30
2018-02-17T06:32:05.593Z,10.17
2018-02-17T06:34:33.020Z,10.00
2018-02-17T06:37:00.459Z,10.83
2018-02-17T06:39:27.896Z,9.17
2018-02-17T06:41:55.338Z,10.50
2018-02-17T06:44:22.761Z,10.63
2018-02-17T06:46:50.977Z,11.40
2018-02-17T06:49:18.436Z,10.30
2018-02-17T06:51:45.869Z,9.90
2018-02-17T06:54:13.308Z,10.73
2018-02-17T06:56:41.531Z,10.13
2018-02-17T06:59:08.973Z,10.80
2018-02-17T07:01:36.396Z,11.10
2018-02-17T07:04:04.616Z,11.37
2018-02-17T07:06:32.068Z,12.70
2018-02-17T07:08:59.581Z,10.03
2018-02-17T07:11:27.008Z,11.03
2018-02-17T07:13:54.457Z,10.20
2018-02-17T07:16:21.896Z,11.30
2018-02-17T07:18:49.437Z,10.63
2018-02-17T07:21:16.887Z,10.20
2018-02-17T07:23:44.312Z,11.40
2018-02-17T07:26:12.529Z,11.27
2018-02-17T07:28:39.956Z,11.73
2018-02-17T07:31:07.440Z,11.77
2018-02-17T07:33:34.880Z,12.27
2018-02-17T07:36:02.318Z,11.97
2018-02-17T07:38:30.632Z,11.27
2018-02-17T07:40:58.087Z,11.90
2018-02-17T07:43:25.544Z,11.07
2018-02-17T07:45:52.976Z,10.73
2018-02-17T07:48:20.412Z,11.37
2018-02-17T07:50:48.630Z,11.00
2018-02-17T07:53:16.060Z,10.90
2018-02-17T07:55:43.489Z,11.80
2018-02-17T07:58:11.008Z,12.43
2018-02-17T08:00:38.452Z,13.83
2018-02-17T08:03:05.897Z,12.73
2018-02-17T08:05:33.380Z,14.10
2018-02-17T08:08:00.900Z,14.83
2018-02-17T08:10:29.104Z,13.83
2018-02-17T08:12:56.537Z,15.10
2018-02-17T08:15:24.769Z,15.20
2018-02-17T08:17:52.220Z,21.63
2018-02-17T08:20:19.660Z,20.80
2018-02-17T08:22:47.120Z,19.53
2018-02-17T08:25:14.604Z,18.13
2018-02-17T08:27:42.139Z,18.77
2018-02-17T08:30:09.585Z,17.77
2018-02-17T08:32:37.029Z,17.30
2018-02-17T08:35:04.518Z,15.80
2018-02-17T08:37:31.968Z,16.33
2018-02-17T08:39:59.424Z,16.30
2018-02-17T08:42:26.884Z,16.13
2018-02-17T08:44:54.329Z,17.50
2018-02-17T08:47:21.753Z,17.90
2018-02-17T08:49:49.949Z,16.67
2018-02-17T08:52:17.408Z,17.63
2018-02-17T08:54:44.874Z,16.93
2018-02-17T08:57:12.309Z,17.97
2018-02-17T08:59:39.748Z,17.93
2018-02-17T09:02:07.963Z,17.70
2018-02-17T09:04:35.393Z,18.57
2018-02-17T09:07:03.603Z,16.93
2018-02-17T09:09:31.064Z,16.27
2018-02-17T09:11:58.497Z,16.13
2018-02-17T09:14:25.976Z,13.40
2018-02-17T09:16:53.405Z,14.90
2018-02-17T09:19:20.832Z,14.17
2018-02-17T09:21:48.348Z,19.57
2018-02-17T09:24:15.789Z,43.67
2018-02-17T09:26:43.220Z,116.37
2018-02-17T09:29:11.448Z,143.50
2018-02-17T09:31:38.902Z,71.70
2018-02-17T09:34:06.370Z,27.97
2018-02-17T09:36:33.812Z,18.87
2018-02-17T09:39:01.262Z,18.07
2018-02-17T09:41:28.685Z,16.60
2018-02-17T09:43:56.185Z,16.57
2018-02-17T09:46:23.651Z,16.60
2018-02-17T09:48:51.107Z,18.27
2018-02-17T09:51:18.552Z,19.07
2018-02-17T09:53:45.989Z,18.63
2018-02-17T09:56:13.469Z,17.27
2018-02-17T09:58:40.924Z,17.43
2018-02-17T10:01:08.371Z,17.77
2018-02-17T10:03:35.796Z,17.07
2018-02-17T10:06:04.120Z,17.73
2018-02-17T10:08:31.578Z,17.40
2018-02-17T10:10:59.037Z,17.87
2018-02-17T10:13:26.495Z,17.87
2018-02-17T10:15:53.941Z,18.77
2018-02-17T10:18:21.360Z,18.37
2018-02-17T10:20:49.577Z,19.27
2018-02-17T10:23:17.028Z,17.93
2018-02-17T10:25:44.458Z,19.60
2018-02-17T10:28:11.899Z,19.77
2018-02-17T10:30:40.101Z,19.33
2018-02-17T10:33:07.547Z,20.23
2018-02-17T10:35:35.035Z,21.50
2018-02-17T10:38:03.192Z,21.47
2018-02-17T10:40:30.709Z,20.63
2018-02-17T10:42:58.234Z,20.20
2018-02-17T10:45:25.677Z,19.87
2018-02-17T10:47:53.113Z,20.67
2018-02-17T10:50:20.550Z,20.50
2018-02-17T10:52:48.777Z,22.20
2018-02-17T10:55:17.049Z,20.73
2018-02-17T10:57:44.509Z,21.67
2018-02-17T11:00:11.942Z,23.10
2018-02-17T11:02:39.416Z,23.13
2018-02-17T11:05:06.872Z,23.47
2018-02-17T11:07:34.305Z,22.37
2018-02-17T11:10:01.793Z,21.53
2018-02-17T11:12:29.223Z,23.47
2018-02-17T11:14:56.652Z,23.00
2018-02-17T11:17:24.853Z,22.13
2018-02-17T11:19:52.328Z,22.90
2018-02-17T11:22:19.765Z,20.93
2018-02-17T11:24:47.256Z,22.23
2018-02-17T11:27:14.814Z,21.20
2018-02-17T11:29:42.242Z,22.53
2018-02-17T11:32:09.698Z,23.23
2018-02-17T11:34:37.132Z,21.60
2018-02-17T11:37:05.330Z,22.37
2018-02-17T11:39:32.758Z,20.63
2018-02-17T11:42:00.232Z,20.27
2018-02-17T11:44:28.416Z,21.70
2018-02-17T11:46:55.910Z,22.77
2018-02-17T11:49:23.364Z,21.03
2018-02-17T11:51:50.814Z,21.13
2018-02-17T11:54:18.249Z,21.30
2018-02-17T11:56:45.684Z,21.10
2018-02-17T11:59:13.880Z,21.03
2018-02-17T12:01:41.316Z,21.73
2018-02-17T12:04:09.551Z,20.97
2018-02-17T12:06:36.967Z,23.03
2018-02-17T12:09:04.461Z,20.70
2018-02-17T12:11:31.906Z,20.13
2018-02-17T12:13:59.357Z,21.17
2018-02-17T12:16:26.820Z,20.60
2018-02-17T12:18:54.290Z,21.67
2018-02-17T12:21:21.732Z,20.63
2018-02-17T12:23:49.188Z,21.43
2018-02-17T12:26:16.644Z,21.90
2018-02-17T12:28:44.081Z,22.73
2018-02-17T12:31:11.513Z,19.90
2018-02-17T12:33:39.726Z,22.57
2018-02-17T12:36:07.181Z,21.57
2018-02-17T12:38:34.682Z,21.07
2018-02-17T12:41:02.893Z,22.03
2018-02-17T12:43:31.098Z,21.87
2018-02-17T12:45:58.550Z,22.97
2018-02-17T12:48:25.973Z,23.17
2018-02-17T12:50:54.322Z,22.53
2018-02-17T12:53:21.770Z,22.83
2018-02-17T12:55:49.300Z,21.63
2018-02-17T12:58:16.718Z,23.03
2018-02-17T13:00:44.947Z,23.17
2018-02-17T13:03:12.454Z,22.67
2018-02-17T13:05:40.652Z,22.23
2018-02-17T13:08:08.077Z,22.63
2018-02-17T13:10:36.309Z,23.67
2018-02-17T13:13:03.742Z,24.30
2018-02-17T13:15:31.179Z,22.27
2018-02-17T13:17:59.494Z,21.67
2018-02-17T13:20:26.947Z,19.07
2018-02-17T13:22:54.410Z,17.37
2018-02-17T13:25:21.860Z,15.70
2018-02-17T13:27:49.294Z,15.07
2018-02-17T13:30:17.490Z,14.77
2018-02-17T13:32:44.925Z,14.70
2018-02-17T13:35:12.360Z,16.33
2018-02-17T13:37:39.781Z,17.07
2018-02-17T13:40:07.238Z,17.43
2018-02-17T13:42:34.719Z,17.93
2018-02-17T13:45:02.964Z,16.23
2018-02-17T13:47:30.408Z,18.13
2018-02-17T13:49:57.842Z,18.40
2018-02-17T13:52:25.333Z,18.30
2018-02-17T13:54:52.783Z,15.97
2018-02-17T13:57:20.218Z,14.67
2018-02-17T13:59:47.659Z,14.13
2018-02-17T14:02:15.874Z,14.80
2018-02-17T14:04:43.311Z,15.77
2018-02-17T14:07:10.733Z,14.67
2018-02-17T14:09:38.965Z,15.67
2018-02-17T14:12:06.423Z,16.07
2018-02-17T14:14:33.858Z,15.97
2018-02-17T14:17:01.312Z,15.60
2018-02-17T14:19:28.792Z,17.00
2018-02-17T14:21:56.223Z,16.57
2018-02-17T14:24:23.701Z,16.50
2018-02-17T14:26:51.154Z,16.13
2018-02-17T14:29:18.561Z,16.17
2018-02-17T14:31:45.996Z,16.63
2018-02-17T14:34:13.555Z,17.60
2018-02-17T14:36:40.987Z,15.97
2018-02-17T14:39:08.424Z,16.77
2018-02-17T14:41:35.910Z,15.97
2018-02-17T14:44:03.356Z,15.53
2018-02-17T14:46:30.829Z,15.77
2018-02-17T14:48:58.413Z,16.93
2018-02-17T14:51:25.785Z,17.43
2018-02-17T14:53:54.012Z,17.47
2018-02-17T14:56:21.449Z,15.13
2018-02-17T14:58:48.923Z,13.37
2018-02-17T15:01:16.365Z,14.20
2018-02-17T15:03:43.797Z,15.13
2018-02-17T15:06:12.001Z,15.10
2018-02-17T15:08:39.472Z,15.00
2018-02-17T15:11:06.904Z,15.60
2018-02-17T15:13:34.385Z,15.60
2018-02-17T15:16:01.837Z,16.93
2018-02-17T15:18:29.258Z,15.57
2018-02-17T15:20:57.466Z,15.60
2018-02-17T15:23:24.934Z,15.90
2018-02-17T15:25:52.396Z,16.93
2018-02-17T15:28:19.830Z,17.50
2018-02-17T15:30:47.260Z,17.20
2018-02-17T15:33:15.457Z,17.53
2018-02-17T15:35:42.886Z,19.20
2018-02-17T15:38:11.104Z,19.50
2018-02-17T15:40:38.573Z,19.83
2018-02-17T15:43:06.013Z,18.87
2018-02-17T15:45:33.458Z,19.77
2018-02-17T15:48:00.896Z,16.57
2018-02-17T15:50:29.112Z,17.40
2018-02-17T15:52:56.558Z,17.63
2018-02-17T15:55:24.024Z,16.73
2018-02-17T15:57:51.538Z,17.07
2018-02-17T16:00:19.746Z,16.67
2018-02-17T16:02:47.221Z,18.87
2018-02-17T16:05:14.716Z,17.17
2018-02-17T16:07:42.240Z,17.73
2018-02-17T16:10:09.685Z,17.43
2018-02-17T16:12:37.108Z,16.80
2018-02-17T16:15:07.364Z,17.37
2018-02-17T16:17:34.868Z,17.43
2018-02-17T16:20:03.049Z,16.47
2018-02-17T16:22:31.267Z,16.87
2018-02-17T16:24:58.733Z,18.00
2018-02-17T16:27:26.164Z,16.10
2018-02-17T16:29:53.605Z,15.30
2018-02-17T16:32:21.801Z,16.90
2018-02-17T16:34:49.226Z,16.90
2018-02-17T16:37:17.433Z,16.50
2018-02-17T16:39:44.857Z,16.97
2018-02-17T16:42:13.056Z,17.87
2018-02-17T16:44:40.501Z,19.50
2018-02-17T16:47:08.701Z,20.70
2018-02-17T16:49:36.124Z,19.97
2018-02-17T16:52:04.337Z,21.17
2018-02-17T16:54:31.767Z,23.47
2018-02-17T16:56:59.209Z,26.47
2018-02-17T16:59:26.650Z,36.17
2018-02-17T17:01:54.077Z,34.47
2018-02-17T17:04:22.272Z,33.63
2018-02-17T17:06:50.483Z,31.37
2018-02-17T17:09:17.918Z,27.27
2018-02-17T17:11:45.341Z,24.30
2018-02-17T17:14:13.618Z,25.27
2018-02-17T17:16:40.990Z,24.53
2018-02-17T17:19:09.184Z,25.73
2018-02-17T17:21:36.679Z,26.60
2018-02-17T17:24:04.108Z,26.80
2018-02-17T17:26:31.547Z,27.70
2018-02-17T17:28:58.988Z,27.73
2018-02-17T17:31:27.239Z,27.53
2018-02-17T17:33:54.708Z,27.57
2018-02-17T17:36:22.220Z,26.20
2018-02-17T17:38:49.681Z,26.57
2018-02-17T17:41:17.116Z,29.83
2018-02-17T17:43:44.564Z,28.07
2018-02-17T17:46:12.759Z,29.77
2018-02-17T17:48:40.193Z,30.63
2018-02-17T17:51:07.632Z,31.90
2018-02-17T17:53:35.833Z,32.27
2018-02-17T17:56:03.320Z,33.67
2018-02-17T17:58:30.761Z,31.93
2018-02-17T18:00:58.194Z,31.37
2018-02-17T18:03:25.633Z,32.57
2018-02-17T18:05:53.841Z,32.97
2018-02-17T18:08:21.278Z,32.90
2018-02-17T18:10:49.489Z,31.13
2018-02-17T18:13:16.958Z,31.20
2018-02-17T18:15:44.391Z,30.60
2018-02-17T18:18:11.861Z,31.70
2018-02-17T18:20:39.297Z,28.27
2018-02-17T18:23:06.736Z,28.30
2018-02-17T18:25:34.941Z,27.93
2018-02-17T18:28:02.404Z,28.10
2018-02-17T18:30:29.841Z,27.57
2018-02-17T18:32:57.264Z,33.93
2018-02-17T18:35:25.497Z,34.40
2018-02-17T18:37:52.960Z,30.70
2018-02-17T18:40:20.389Z,22.03
2018-02-17T18:42:47.867Z,23.60
2018-02-17T18:45:15.297Z,21.83
2018-02-17T18:47:42.728Z,19.77
2018-02-17T18:50:10.968Z,20.47
2018-02-17T18:52:38.404Z,19.77
2018-02-17T18:55:05.837Z,20.57
2018-02-17T18:57:33.329Z,20.83
2018-02-17T19:00:00.752Z,20.93
2018-02-17T19:02:28.188Z,20.87
2018-02-17T19:04:56.398Z,21.23
2018-02-17T19:07:23.872Z,26.17
2018-02-17T19:09:51.361Z,26.87
2018-02-17T19:12:18.805Z,23.20
2018-02-17T19:14:46.235Z,21.13
2018-02-17T19:17:13.733Z,21.63
2018-02-17T19:19:41.157Z,20.57
2018-02-17T19:22:08.580Z,21.80
2018-02-17T19:24:36.021Z,21.47
2018-02-17T19:27:04.224Z,22.27
2018-02-17T19:29:31.653Z,21.13
2018-02-17T19:31:59.857Z,22.93
2018-02-17T19:34:27.298Z,25.87
2018-02-17T19:36:55.514Z,24.07
2018-02-17T19:39:22.958Z,26.43
2018-02-17T19:41:50.384Z,25.87
2018-02-17T19:44:18.596Z,27.30
2018-02-17T19:46:46.028Z,25.83
2018-02-17T19:49:13.464Z,25.37
2018-02-17T19:51:41.684Z,24.97
2018-02-17T19:54:09.161Z,25.60
2018-02-17T19:56:36.601Z,26.00
2018-02-17T19:59:04.029Z,32.23
2018-02-17T20:01:31.464Z,28.63
2018-02-17T20:03:59.679Z,26.37
2018-02-17T20:06:27.109Z,25.33
2018-02-17T20:08:55.310Z,25.47
2018-02-17T20:11:22.776Z,23.67
2018-02-17T20:13:50.252Z,23.60
2018-02-17T20:16:17.692Z,24.70
2018-02-17T20:18:45.123Z,23.43
2018-02-17T20:21:12.544Z,25.83
2018-02-17T20:23:40.068Z,26.83
2018-02-17T20:26:07.533Z,27.03
2018-02-17T20:28:34.998Z,24.40
2018-02-17T20:31:02.530Z,25.33
2018-02-17T20:33:29.953Z,27.93
2018-02-17T20:35:58.155Z,27.63
2018-02-17T20:38:25.577Z,25.33
2018-02-17T20:40:53.894Z,26.57
2018-02-17T20:43:21.385Z,28.87
2018-02-17T20:45:49.553Z,30.90
2018-02-17T20:48:16.989Z,28.33
2018-02-17T20:50:44.447Z,30.30
2018-02-17T20:53:11.873Z,29.60
2018-02-17T20:55:39.390Z,29.67
2018-02-17T20:58:06.821Z,33.63
2018-02-17T21:00:34.292Z,29.70
2018-02-17T21:03:02.564Z,29.73
2018-02-17T21:05:30.013Z,30.93
2018-02-17T21:07:57.458Z,30.30
2018-02-17T21:10:24.885Z,29.50
2018-02-17T21:12:53.102Z,29.97
2018-02-17T21:15:20.533Z,30.80
2018-02-17T21:17:47.973Z,32.40
2018-02-17T21:20:16.178Z,32.47
2018-02-17T21:22:43.612Z,31.00
2018-02-17T21:25:11.108Z,31.97
2018-02-17T21:27:38.536Z,31.73
2018-02-17T21:30:06.025Z,32.87
2018-02-17T21:32:33.463Z,33.27
2018-02-17T21:35:00.876Z,33.60
2018-02-17T21:37:29.101Z,35.00
2018-02-17T21:39:56.556Z,35.07
2018-02-17T21:42:24.013Z,33.77
2018-02-17T21:44:51.440Z,35.27
2018-02-17T21:47:18.881Z,34.67
2018-02-17T21:49:47.086Z,34.83
2018-02-17T21:52:14.600Z,32.73
2018-02-17T21:54:42.048Z,32.47
2018-02-17T21:57:09.485Z,32.67
2018-02-17T21:59:36.909Z,30.30
2018-02-17T22:02:04.351Z,28.80
2018-02-17T22:04:32.564Z,30.10
2018-02-17T22:07:00.012Z,28.90
2018-02-17T22:09:27.494Z,29.57
2018-02-17T22:11:54.980Z,27.47
2018-02-17T22:14:22.457Z,28.53
2018-02-17T22:16:50.721Z,36.87
2018-02-17T22:19:18.234Z,35.27
2018-02-17T22:21:45.688Z,33.97
2018-02-17T22:24:13.149Z,31.37
2018-02-17T22:26:40.605Z,32.13
2018-02-17T22:29:08.048Z,32.20
2018-02-17T22:31:35.540Z,28.57
2018-02-17T22:34:02.973Z,31.10
2018-02-17T22:36:30.418Z,29.33
2018-02-17T22:38:57.901Z,31.27
2018-02-17T22:41:25.325Z,34.43
2018-02-17T22:43:52.765Z,32.90
2018-02-17T22:46:20.270Z,34.60
2018-02-17T22:48:47.712Z,33.63
2018-02-17T22:51:15.193Z,35.63
2018-02-17T22:53:42.637Z,37.77
2018-02-17T22:56:10.089Z,37.50
2018-02-17T22:58:37.561Z,38.77
2018-02-17T23:01:05.012Z,43.93
2018-02-17T23:03:32.456Z,43.13
2018-02-17T23:05:59.893Z,40.47
2018-02-17T23:08:27.345Z,38.80
2018-02-17T23:10:54.777Z,37.20
2018-02-17T23:13:23.006Z,36.27
2018-02-17T23:15:50.453Z,36.20
2018-02-17T23:18:17.887Z,35.23
2018-02-17T23:20:45.317Z,33.57
2018-02-17T23:23:12.832Z,32.40
2018-02-17T23:25:40.265Z,34.03
2018-02-17T23:28:07.693Z,31.67
2018-02-17T23:30:35.213Z,33.47
2018-02-17T23:33:02.656Z,32.93
2018-02-17T23:35:30.084Z,34.20
2018-02-17T23:37:58.289Z,32.90
2018-02-17T23:40:25.730Z,35.37
2018-02-17T23:42:53.156Z,33.07
2018-02-17T23:45:21.370Z,34.10
2018-02-17T23:47:48.805Z,34.37
2018-02-17T23:50:17.005Z,34.03
2018-02-17T23:52:44.436Z,34.67
2018-02-17T23:55:11.969Z,35.33
2018-02-17T23:57:39.496Z,36.30
